AEZ2350 LIEE-LIML
Flight info
| Callsign | AEZ2350 |
|---|---|
| Flight time | N/A |
| Altitude | 30000 |
| Route | KOVAS DCT DEXUL DCT GIGGI DCT UPDUT DCT CORSI DCT OKROK DCT AKUTI DCT TORTU DCT ERTEV DCT OLETI DCT ITCAP |
| Aircraft | A319/M-SDE3FGHIRWY/LB1 |
Departure
| Time | N/A |
|---|---|
| Airport | Cagliari Elmas Airport (LIEE) |
Arrival
| Time | 2026-05-06 08:57 |
|---|---|
| Airport | Milano Linate Airport (LIML) |
| Time | Latitude | Longitude | Altitude | Speed | Heading |
|---|---|---|---|---|---|
| 2026-05-06 08:13 | 41.20725 | 8.86242 | 29992 ft | 451 kts | 346° |
| 2026-05-06 08:14 | 41.27193 | 8.83940 | 29992 ft | 451 kts | 343° |
| 2026-05-06 08:14 | 41.33749 | 8.81960 | 29991 ft | 451 kts | 352° |
| 2026-05-06 08:15 | 41.40429 | 8.81579 | 29993 ft | 451 kts | 1° |
| 2026-05-06 08:15 | 41.46727 | 8.81908 | 29991 ft | 451 kts | 2° |
| 2026-05-06 08:16 | 41.52975 | 8.82264 | 29991 ft | 451 kts | 2° |
| 2026-05-06 08:16 | 41.59264 | 8.82607 | 29991 ft | 451 kts | 2° |
| 2026-05-06 08:17 | 41.65532 | 8.82942 | 29991 ft | 451 kts | 2° |
| 2026-05-06 08:17 | 41.71789 | 8.83275 | 29991 ft | 451 kts | 2° |
| 2026-05-06 08:18 | 41.78079 | 8.83609 | 29991 ft | 451 kts | 2° |
| 2026-05-06 08:18 | 41.84350 | 8.83943 | 29991 ft | 451 kts | 2° |
| 2026-05-06 08:19 | 41.90604 | 8.84278 | 29991 ft | 451 kts | 2° |
| 2026-05-06 08:19 | 41.96872 | 8.84614 | 29991 ft | 451 kts | 2° |
| 2026-05-06 08:20 | 42.03169 | 8.84952 | 29991 ft | 451 kts | 2° |
| 2026-05-06 08:20 | 42.09438 | 8.85289 | 29991 ft | 451 kts | 2° |
| 2026-05-06 08:21 | 42.15720 | 8.85626 | 29991 ft | 451 kts | 2° |
| 2026-05-06 08:21 | 42.21961 | 8.85962 | 29991 ft | 451 kts | 2° |
| 2026-05-06 08:22 | 42.28228 | 8.86300 | 29991 ft | 451 kts | 2° |
| 2026-05-06 08:22 | 42.34517 | 8.86640 | 29991 ft | 451 kts | 2° |
| 2026-05-06 08:23 | 42.40794 | 8.86980 | 29991 ft | 451 kts | 2° |
| 2026-05-06 08:23 | 42.47041 | 8.87319 | 29991 ft | 451 kts | 2° |
| 2026-05-06 08:24 | 42.53295 | 8.87659 | 29992 ft | 451 kts | 2° |
| 2026-05-06 08:24 | 42.59593 | 8.88002 | 29992 ft | 451 kts | 2° |
| 2026-05-06 08:25 | 42.65837 | 8.88342 | 29992 ft | 451 kts | 2° |
| 2026-05-06 08:25 | 42.72126 | 8.88685 | 29992 ft | 451 kts | 2° |
| 2026-05-06 08:26 | 42.78380 | 8.89028 | 29992 ft | 451 kts | 2° |
| 2026-05-06 08:26 | 42.84680 | 8.89585 | 29992 ft | 451 kts | 5° |
| 2026-05-06 08:27 | 42.90925 | 8.90321 | 29992 ft | 451 kts | 5° |
| 2026-05-06 08:27 | 42.97162 | 8.91057 | 29992 ft | 451 kts | 5° |
| 2026-05-06 08:28 | 43.03429 | 8.91790 | 29992 ft | 451 kts | 5° |
| 2026-05-06 08:28 | 43.09647 | 8.92517 | 29992 ft | 451 kts | 5° |
| 2026-05-06 08:29 | 43.15924 | 8.93251 | 29992 ft | 451 kts | 5° |
| 2026-05-06 08:29 | 43.22161 | 8.93983 | 29992 ft | 451 kts | 5° |
| 2026-05-06 08:30 | 43.28416 | 8.94691 | 29992 ft | 451 kts | 5° |
| 2026-05-06 08:30 | 43.34660 | 8.95386 | 29992 ft | 451 kts | 5° |
| 2026-05-06 08:31 | 43.40911 | 8.95865 | 29992 ft | 451 kts | 1° |
| 2026-05-06 08:31 | 43.47168 | 8.95873 | 29992 ft | 451 kts | 360° |
| 2026-05-06 08:32 | 43.53450 | 8.95854 | 29881 ft | 451 kts | 0° |
| 2026-05-06 08:32 | 43.56569 | 8.95856 | 29632 ft | 451 kts | 0° |
| 2026-05-06 08:32 | 43.59770 | 8.95894 | 29378 ft | 451 kts | 2° |
| 2026-05-06 08:33 | 43.62954 | 8.96147 | 29125 ft | 452 kts | 5° |
| 2026-05-06 08:33 | 43.66140 | 8.96658 | 28870 ft | 451 kts | 8° |
| 2026-05-06 08:33 | 43.69280 | 8.97420 | 28617 ft | 448 kts | 11° |
| 2026-05-06 08:33 | 43.72309 | 8.98289 | 28310 ft | 443 kts | 12° |
| 2026-05-06 08:34 | 43.75304 | 8.99180 | 27847 ft | 443 kts | 12° |
| 2026-05-06 08:34 | 43.81451 | 9.00820 | 26774 ft | 432 kts | 8° |
| 2026-05-06 08:34 | 43.84463 | 9.01303 | 26275 ft | 425 kts | 5° |
| 2026-05-06 08:35 | 43.87387 | 9.01666 | 25770 ft | 419 kts | 5° |
| 2026-05-06 08:35 | 43.90307 | 9.02007 | 25257 ft | 413 kts | 5° |
| 2026-05-06 08:35 | 43.93137 | 9.02335 | 24754 ft | 408 kts | 5° |
| 2026-05-06 08:35 | 43.95936 | 9.02663 | 24252 ft | 403 kts | 5° |
| 2026-05-06 08:36 | 43.98714 | 9.02990 | 23751 ft | 398 kts | 5° |
| 2026-05-06 08:36 | 44.01450 | 9.03314 | 23253 ft | 394 kts | 5° |
| 2026-05-06 08:36 | 44.04149 | 9.03635 | 22761 ft | 389 kts | 5° |
| 2026-05-06 08:36 | 44.06829 | 9.03955 | 22268 ft | 386 kts | 5° |
| 2026-05-06 08:37 | 44.09487 | 9.04272 | 21780 ft | 382 kts | 5° |
| 2026-05-06 08:37 | 44.12152 | 9.04591 | 21288 ft | 379 kts | 5° |
| 2026-05-06 08:37 | 44.14767 | 9.04904 | 20801 ft | 375 kts | 5° |
| 2026-05-06 08:37 | 44.17342 | 9.05213 | 20320 ft | 372 kts | 5° |
| 2026-05-06 08:38 | 44.19907 | 9.05521 | 19841 ft | 370 kts | 5° |
| 2026-05-06 08:38 | 44.22471 | 9.05829 | 19362 ft | 367 kts | 5° |
| 2026-05-06 08:38 | 44.25005 | 9.06133 | 18886 ft | 364 kts | 5° |
| 2026-05-06 08:38 | 44.27495 | 9.06432 | 18417 ft | 362 kts | 5° |
| 2026-05-06 08:39 | 44.30003 | 9.06733 | 17943 ft | 359 kts | 5° |
| 2026-05-06 08:39 | 44.32494 | 9.07033 | 17470 ft | 357 kts | 5° |
| 2026-05-06 08:39 | 44.34947 | 9.07328 | 17003 ft | 355 kts | 5° |
| 2026-05-06 08:39 | 44.37418 | 9.07627 | 16530 ft | 353 kts | 5° |
| 2026-05-06 08:40 | 44.39839 | 9.07919 | 16067 ft | 351 kts | 5° |
| 2026-05-06 08:40 | 44.42259 | 9.08303 | 15600 ft | 349 kts | 8° |
| 2026-05-06 08:40 | 44.44639 | 9.08890 | 15134 ft | 348 kts | 11° |
| 2026-05-06 08:40 | 44.47002 | 9.09592 | 14667 ft | 346 kts | 12° |
| 2026-05-06 08:41 | 44.49359 | 9.10315 | 14200 ft | 344 kts | 12° |
| 2026-05-06 08:41 | 44.51685 | 9.11031 | 13738 ft | 342 kts | 12° |
| 2026-05-06 08:41 | 44.54005 | 9.11742 | 13276 ft | 340 kts | 12° |
| 2026-05-06 08:41 | 44.56281 | 9.12439 | 12838 ft | 336 kts | 12° |
| 2026-05-06 08:42 | 44.58527 | 9.13126 | 12657 ft | 325 kts | 12° |
| 2026-05-06 08:42 | 44.60700 | 9.13790 | 12496 ft | 314 kts | 12° |
| 2026-05-06 08:42 | 44.62791 | 9.14429 | 12340 ft | 303 kts | 12° |
| 2026-05-06 08:42 | 44.64817 | 9.15049 | 12195 ft | 292 kts | 12° |
| 2026-05-06 08:43 | 44.66779 | 9.15649 | 12062 ft | 282 kts | 12° |
| 2026-05-06 08:43 | 44.68666 | 9.16227 | 11942 ft | 272 kts | 12° |
| 2026-05-06 08:43 | 44.70480 | 9.16783 | 11833 ft | 261 kts | 12° |
| 2026-05-06 08:43 | 44.72234 | 9.17321 | 11646 ft | 255 kts | 12° |
| 2026-05-06 08:44 | 44.73959 | 9.17849 | 11334 ft | 255 kts | 12° |
| 2026-05-06 08:44 | 44.75689 | 9.18380 | 11031 ft | 253 kts | 12° |
| 2026-05-06 08:44 | 44.77409 | 9.18907 | 10734 ft | 252 kts | 12° |
| 2026-05-06 08:44 | 44.79115 | 9.19431 | 10442 ft | 250 kts | 12° |
| 2026-05-06 08:45 | 44.80802 | 9.19949 | 10153 ft | 248 kts | 12° |
| 2026-05-06 08:45 | 44.82472 | 9.20514 | 9927 ft | 244 kts | 16° |
| 2026-05-06 08:45 | 44.84088 | 9.21200 | 9659 ft | 242 kts | 17° |
| 2026-05-06 08:45 | 44.85686 | 9.21902 | 9381 ft | 240 kts | 17° |
| 2026-05-06 08:46 | 44.87283 | 9.22607 | 9099 ft | 239 kts | 17° |
| 2026-05-06 08:46 | 44.88879 | 9.23312 | 8818 ft | 237 kts | 17° |
| 2026-05-06 08:46 | 44.90459 | 9.24008 | 8539 ft | 236 kts | 17° |
| 2026-05-06 08:46 | 44.92020 | 9.24695 | 8264 ft | 235 kts | 17° |
| 2026-05-06 08:47 | 44.93582 | 9.25384 | 7989 ft | 234 kts | 17° |
| 2026-05-06 08:47 | 44.95121 | 9.26061 | 7718 ft | 232 kts | 17° |
| 2026-05-06 08:47 | 44.96667 | 9.26743 | 7446 ft | 231 kts | 17° |
| 2026-05-06 08:47 | 44.98196 | 9.27416 | 7178 ft | 230 kts | 17° |
| 2026-05-06 08:48 | 44.99713 | 9.28086 | 6912 ft | 229 kts | 17° |
| 2026-05-06 08:48 | 45.01242 | 9.28760 | 6644 ft | 227 kts | 17° |
| 2026-05-06 08:48 | 45.02744 | 9.29424 | 6381 ft | 225 kts | 17° |
| 2026-05-06 08:48 | 45.04224 | 9.30077 | 6122 ft | 223 kts | 17° |
| 2026-05-06 08:49 | 45.05700 | 9.30729 | 5865 ft | 221 kts | 17° |
| 2026-05-06 08:49 | 45.07177 | 9.31357 | 5606 ft | 219 kts | 12° |
| 2026-05-06 08:49 | 45.08676 | 9.31596 | 5352 ft | 217 kts | 359° |
| 2026-05-06 08:49 | 45.10170 | 9.31483 | 5103 ft | 215 kts | 355° |
| 2026-05-06 08:50 | 45.11661 | 9.31305 | 4853 ft | 213 kts | 355° |
| 2026-05-06 08:50 | 45.13137 | 9.31126 | 4605 ft | 211 kts | 355° |
| 2026-05-06 08:50 | 45.14604 | 9.30955 | 4359 ft | 209 kts | 355° |
| 2026-05-06 08:50 | 45.16067 | 9.30790 | 4114 ft | 207 kts | 355° |
| 2026-05-06 08:51 | 45.17494 | 9.30632 | 3874 ft | 205 kts | 355° |
| 2026-05-06 08:51 | 45.18911 | 9.30477 | 3635 ft | 204 kts | 355° |
| 2026-05-06 08:51 | 45.20319 | 9.30323 | 3470 ft | 195 kts | 355° |
| 2026-05-06 08:51 | 45.21663 | 9.30175 | 3211 ft | 191 kts | 355° |
| 2026-05-06 08:52 | 45.22954 | 9.30034 | 3106 ft | 178 kts | 355° |
| 2026-05-06 08:52 | 45.24129 | 9.29906 | 3097 ft | 157 kts | 355° |
| 2026-05-06 08:52 | 45.25187 | 9.29791 | 3091 ft | 151 kts | 355° |
| 2026-05-06 08:52 | 45.26192 | 9.29682 | 3084 ft | 138 kts | 355° |
| 2026-05-06 08:53 | 45.27144 | 9.29579 | 3089 ft | 135 kts | 355° |
| 2026-05-06 08:53 | 45.28095 | 9.29476 | 3098 ft | 135 kts | 355° |
| 2026-05-06 08:53 | 45.29032 | 9.29375 | 3098 ft | 135 kts | 355° |
| 2026-05-06 08:53 | 45.29965 | 9.29274 | 2947 ft | 135 kts | 355° |
| 2026-05-06 08:54 | 45.30908 | 9.29172 | 2768 ft | 134 kts | 355° |
| 2026-05-06 08:54 | 45.31836 | 9.29072 | 2594 ft | 134 kts | 355° |
| 2026-05-06 08:54 | 45.32763 | 9.28972 | 2419 ft | 134 kts | 355° |
| 2026-05-06 08:54 | 45.33688 | 9.28872 | 2243 ft | 133 kts | 355° |
| 2026-05-06 08:55 | 45.34623 | 9.28772 | 2065 ft | 133 kts | 355° |
| 2026-05-06 08:55 | 45.35548 | 9.28672 | 1887 ft | 132 kts | 355° |
| 2026-05-06 08:55 | 45.36464 | 9.28574 | 1710 ft | 132 kts | 355° |
| 2026-05-06 08:55 | 45.37382 | 9.28475 | 1532 ft | 132 kts | 355° |
| 2026-05-06 08:56 | 45.38294 | 9.28376 | 1356 ft | 131 kts | 355° |
| 2026-05-06 08:56 | 45.39220 | 9.28277 | 1178 ft | 131 kts | 355° |
| 2026-05-06 08:56 | 45.40125 | 9.28179 | 1004 ft | 131 kts | 355° |
| 2026-05-06 08:56 | 45.41033 | 9.28081 | 831 ft | 130 kts | 355° |
| 2026-05-06 08:57 | 45.41940 | 9.27984 | 657 ft | 130 kts | 355° |
| 2026-05-06 08:57 | 45.42839 | 9.27887 | 484 ft | 130 kts | 355° |
| 2026-05-06 08:57 | 45.43734 | 9.27791 | 348 ft | 122 kts | 355° |
| 2026-05-06 08:57 | 45.44352 | 9.27724 | 352 ft | 47 kts | 355° |
| 2026-05-06 08:58 | 45.44490 | 9.27709 | 353 ft | 13 kts | 355° |
| 2026-05-06 08:58 | 45.44623 | 9.27698 | 355 ft | 24 kts | 355° |
| 2026-05-06 08:58 | 45.44831 | 9.27674 | 356 ft | 34 kts | 353° |
| 2026-05-06 08:58 | 45.45089 | 9.27642 | 358 ft | 37 kts | 354° |
| 2026-05-06 08:59 | 45.45331 | 9.27686 | 359 ft | 34 kts | 23° |
| 2026-05-06 08:59 | 45.45528 | 9.27815 | 361 ft | 29 kts | 6° |
| 2026-05-06 08:59 | 45.45729 | 9.27818 | 362 ft | 28 kts | 0° |
| 2026-05-06 08:59 | 45.45908 | 9.27843 | 363 ft | 19 kts | 14° |
| 2026-05-06 09:00 | 45.45981 | 9.27849 | 364 ft | 0 kts | 1° |